Aérodrome :
LOGIN :

S'inscrire | Disclaimer

   EN    FR    IT 

 










Légende :    VFR   VFR Marginal   IFR   IFR Intensif   IFR Très Intensif
Visi : 
Plafond : 
>= 8 km
>= 3000ft
5 à 8 km
1000 à 3000 ft
1500m à 5 km
500 à 1000 ft
800 à 1500m
200 à 500 ft
< 800m
< 200 ft
Symboles :   Orages  Brouillard  Fortes neiges  Fortes précipitations  Vent > 20 kt
SIGMETs :   Divers  Orages  Givrage  Turbulence  Onde Orograph.  Cendres Volcan.






- Altitude de l'aérodrome : 126 ft
- Code IATA : TIA


LATI - Rinas Mother Teresa Arpt - Tirana

DERNIER METAR :
  • 171720Z VRB02KT 9999 BKN074 OVC097 16/13 Q1013 NOSIG

METARs EXPIRÉS :
  • 171650Z 27003KT 9999 BKN076 OVC110 16/12 Q1013 NOSIG
  • 171620Z VRB02KT 9999 SCT085 BKN110 16/13 Q1013 NOSIG
  • 171550Z 09002KT 9999 OVC100 17/13 Q1013 NOSIG
  • 171520Z VRB02KT 9999 BKN100 OVC170 18/12 Q1013 NOSIG
  • 171450Z VRB02KT 9999 SCT110 BKN170 18/12 Q1012 NOSIG

TAF TAF LATI
Valide du 17 à 12h jusqu'au 18 à 12h UTC


171100Z 1712/1812 18006KT 9999 BKN070 TX22/1712Z TN09/1805Z
BECMG 1722/1724 18016KT 4000 +RA SCT015TCU OVC030
BECMG 1804/1806 24006KT 9999 SCT030



MET'MAP, la Météo Aéronautique d'un coup d'oeil ! - Copyright ORBIFLY Décembre 2007 - Disclaimer

ORBIFLY MET'MAP TEAM :

Programmation & Développement : Alexandra Zaïnal
Conception & Développement : Baudouin d'Aumeries
Co-Programmation & Développement : Marc-Olivier Méhu
Soutien technique & logistique : Manuel Goepfert

Contact : metmap@orbifly.com




SOURCES & CREDITS :

   NOAA